createdAt,value
2018-12-06T00:02:10.556Z,100.00
2018-12-06T00:04:40.239Z,100.00
2018-12-06T00:07:09.521Z,100.00
2018-12-06T00:09:38.680Z,100.00
2018-12-06T00:12:07.851Z,100.00
2018-12-06T00:14:37.448Z,100.00
2018-12-06T00:17:07.491Z,100.00
2018-12-06T00:19:36.712Z,100.00
2018-12-06T00:22:05.935Z,100.00
2018-12-06T00:24:35.177Z,100.00
2018-12-06T00:27:05.244Z,100.00
2018-12-06T00:29:34.473Z,100.00
2018-12-06T00:32:04.999Z,100.00
2018-12-06T00:34:34.154Z,100.00
2018-12-06T00:37:03.431Z,100.00
2018-12-06T00:39:32.644Z,100.00
2018-12-06T00:42:02.533Z,100.00
2018-12-06T00:44:32.211Z,100.00
2018-12-06T00:47:01.388Z,100.00
2018-12-06T00:49:30.572Z,100.00
2018-12-06T00:51:59.812Z,100.00
2018-12-06T00:54:29.508Z,100.00
2018-12-06T00:56:58.828Z,100.00
2018-12-06T00:59:28.176Z,100.00
2018-12-06T01:01:57.472Z,100.00
2018-12-06T01:04:56.102Z,100.00
2018-12-06T01:07:25.460Z,100.00
2018-12-06T01:09:55.128Z,100.00
2018-12-06T01:12:25.535Z,100.00
2018-12-06T01:14:55.223Z,100.00
2018-12-06T01:17:24.503Z,100.00
2018-12-06T01:19:54.077Z,100.00
2018-12-06T01:22:23.584Z,100.00
2018-12-06T01:24:52.831Z,100.00
2018-12-06T01:27:22.648Z,100.00
2018-12-06T01:29:51.845Z,100.00
2018-12-06T01:32:21.072Z,100.00
2018-12-06T01:34:50.272Z,100.00
2018-12-06T01:37:19.477Z,100.00
2018-12-06T01:39:48.971Z,100.00
2018-12-06T01:42:18.118Z,100.00
2018-12-06T01:44:47.397Z,100.00
2018-12-06T01:47:17.028Z,100.00
2018-12-06T01:49:46.274Z,100.00
2018-12-06T01:52:15.832Z,100.00
2018-12-06T01:54:45.079Z,100.00
2018-12-06T01:57:14.340Z,100.00
2018-12-06T01:59:43.664Z,100.00
2018-12-06T02:02:13.283Z,100.00
2018-12-06T02:04:42.432Z,100.00
2018-12-06T02:07:11.984Z,100.00
2018-12-06T02:09:41.148Z,100.00
2018-12-06T02:12:10.396Z,100.00
2018-12-06T02:14:40.591Z,100.00
2018-12-06T02:17:09.806Z,100.00
2018-12-06T02:19:39.049Z,100.00
2018-12-06T02:22:08.273Z,100.00
2018-12-06T02:24:37.583Z,100.00
2018-12-06T02:27:06.709Z,100.00
2018-12-06T02:29:41.273Z,100.00
2018-12-06T02:32:10.577Z,100.00
2018-12-06T02:34:39.814Z,100.00
2018-12-06T02:37:09.530Z,100.00
2018-12-06T02:39:38.866Z,100.00
2018-12-06T02:42:08.155Z,100.00
2018-12-06T02:44:37.600Z,100.00
2018-12-06T02:47:07.588Z,100.00
2018-12-06T02:49:36.883Z,100.00
2018-12-06T02:52:06.941Z,100.00
2018-12-06T02:54:36.549Z,100.00
2018-12-06T02:57:05.787Z,100.00
2018-12-06T02:59:35.021Z,100.00
2018-12-06T03:02:04.238Z,100.00
2018-12-06T03:04:33.534Z,100.00
2018-12-06T03:07:02.851Z,100.00
2018-12-06T03:09:32.016Z,100.00
2018-12-06T03:12:01.774Z,100.00
2018-12-06T03:14:31.088Z,100.00
2018-12-06T03:17:00.837Z,100.00
2018-12-06T03:19:30.052Z,100.00
2018-12-06T03:21:59.307Z,100.00
2018-12-06T03:24:29.574Z,100.00
2018-12-06T03:26:58.688Z,100.00
2018-12-06T03:29:28.024Z,100.00
2018-12-06T03:31:57.230Z,100.00
2018-12-06T03:34:27.494Z,100.00
2018-12-06T03:36:56.758Z,100.00
2018-12-06T03:39:25.949Z,100.00
2018-12-06T03:41:55.091Z,100.00
2018-12-06T03:44:24.237Z,100.00
2018-12-06T03:46:54.225Z,100.00
2018-12-06T03:49:23.384Z,100.00
2018-12-06T03:51:52.537Z,100.00
2018-12-06T03:54:21.751Z,100.00
2018-12-06T03:56:51.321Z,100.00
2018-12-06T03:59:20.513Z,100.00
2018-12-06T04:01:49.753Z,100.00
2018-12-06T04:04:19.041Z,100.00
2018-12-06T04:06:48.294Z,100.00
2018-12-06T04:09:17.433Z,100.00
2018-12-06T04:11:46.703Z,100.00
2018-12-06T04:14:16.680Z,100.00
2018-12-06T04:16:46.160Z,100.00
2018-12-06T04:19:15.608Z,100.00
2018-12-06T04:21:44.841Z,100.00
2018-12-06T04:24:14.106Z,100.00
2018-12-06T04:26:43.250Z,100.00
2018-12-06T04:29:12.465Z,100.00
2018-12-06T04:31:41.958Z,100.00
2018-12-06T04:34:11.457Z,100.00
2018-12-06T04:36:40.951Z,100.00
2018-12-06T04:39:10.868Z,100.00
2018-12-06T04:41:40.017Z,100.00
2018-12-06T04:44:09.697Z,100.00
2018-12-06T04:46:38.927Z,100.00
2018-12-06T04:49:08.227Z,100.00
2018-12-06T04:51:37.581Z,100.00
2018-12-06T04:54:06.710Z,100.00
2018-12-06T04:56:35.934Z,100.00
2018-12-06T04:59:05.245Z,100.00
2018-12-06T05:01:34.413Z,100.00
2018-12-06T05:04:03.737Z,100.00
2018-12-06T05:06:33.420Z,100.00
2018-12-06T05:11:42.032Z,100.00
2018-12-06T05:14:11.313Z,100.00
2018-12-06T05:16:40.580Z,100.00
2018-12-06T05:19:11.076Z,100.00
2018-12-06T05:21:40.317Z,100.00
2018-12-06T05:24:09.613Z,100.00
2018-12-06T05:26:44.510Z,100.00
2018-12-06T05:29:13.697Z,100.00
2018-12-06T05:31:43.155Z,100.00
2018-12-06T05:34:12.348Z,100.00
2018-12-06T05:36:42.580Z,100.00
2018-12-06T05:39:12.005Z,100.00
2018-12-06T05:41:41.210Z,100.00
2018-12-06T05:44:10.504Z,100.00
2018-12-06T05:46:40.076Z,100.00
2018-12-06T05:49:09.260Z,100.00
2018-12-06T05:51:38.476Z,100.00
2018-12-06T05:54:08.001Z,100.00
2018-12-06T05:56:37.182Z,100.00
2018-12-06T05:59:06.477Z,100.00
2018-12-06T06:01:35.662Z,100.00
2018-12-06T06:04:04.997Z,100.00
2018-12-06T06:06:34.138Z,100.00
2018-12-06T06:09:04.479Z,100.00
2018-12-06T06:11:33.628Z,100.00
2018-12-06T06:14:02.920Z,100.00
2018-12-06T06:16:32.556Z,100.00
2018-12-06T06:19:02.301Z,100.00
2018-12-06T06:21:31.433Z,100.00
2018-12-06T06:24:00.557Z,100.00
2018-12-06T06:26:29.768Z,100.00
2018-12-06T06:28:58.929Z,100.00
2018-12-06T06:31:28.228Z,100.00
2018-12-06T06:33:57.893Z,100.00
2018-12-06T06:36:27.152Z,100.00
2018-12-06T06:38:57.085Z,100.00
2018-12-06T06:41:26.317Z,100.00
2018-12-06T06:43:55.540Z,100.00
2018-12-06T06:46:25.071Z,100.00
2018-12-06T06:48:54.283Z,100.00
2018-12-06T06:51:23.425Z,100.00
2018-12-06T06:53:52.557Z,100.00
2018-12-06T06:56:21.774Z,100.00
2018-12-06T06:58:50.953Z,100.00
2018-12-06T07:01:20.140Z,100.00
2018-12-06T07:03:49.305Z,100.00
2018-12-06T07:06:18.617Z,100.00
2018-12-06T07:08:47.790Z,100.00
2018-12-06T07:11:17.632Z,100.00
2018-12-06T07:13:46.865Z,100.00
2018-12-06T07:16:16.145Z,100.00
2018-12-06T07:18:45.449Z,100.00
2018-12-06T07:21:14.616Z,100.00
2018-12-06T07:23:43.866Z,100.00
2018-12-06T07:26:13.038Z,100.00
2018-12-06T07:28:42.262Z,100.00
2018-12-06T07:31:11.492Z,100.00
2018-12-06T07:33:40.637Z,100.00
2018-12-06T07:36:09.969Z,100.00
2018-12-06T07:38:39.633Z,100.00
2018-12-06T07:41:08.817Z,100.00
2018-12-06T07:43:38.281Z,100.00
2018-12-06T07:46:11.230Z,100.00
2018-12-06T07:48:40.449Z,100.00
2018-12-06T07:51:09.700Z,100.00
2018-12-06T07:53:39.112Z,100.00
2018-12-06T07:56:08.281Z,100.00
2018-12-06T07:58:37.573Z,100.00
2018-12-06T08:01:07.023Z,100.00
2018-12-06T08:03:36.596Z,100.00
2018-12-06T08:06:06.696Z,100.00
2018-12-06T08:08:35.889Z,100.00
2018-12-06T08:11:05.094Z,100.00
2018-12-06T08:13:34.392Z,100.00
2018-12-06T08:16:03.537Z,100.00
2018-12-06T08:18:32.817Z,100.00
2018-12-06T08:21:01.969Z,100.00
2018-12-06T08:23:31.128Z,100.00
2018-12-06T08:26:00.368Z,100.00
2018-12-06T08:28:29.514Z,100.00
2018-12-06T08:30:59.121Z,100.00
2018-12-06T08:33:28.256Z,100.00
2018-12-06T08:35:57.513Z,100.00
2018-12-06T08:38:26.712Z,100.00
2018-12-06T08:40:55.869Z,100.00
2018-12-06T08:43:25.004Z,100.00
2018-12-06T08:45:54.180Z,100.00
2018-12-06T08:48:23.394Z,100.00
2018-12-06T08:50:52.704Z,100.00
2018-12-06T08:53:21.897Z,100.00
2018-12-06T08:55:51.096Z,100.00
2018-12-06T08:58:20.310Z,100.00
2018-12-06T09:00:49.449Z,100.00
2018-12-06T09:03:19.302Z,100.00
2018-12-06T09:05:48.634Z,100.00
2018-12-06T09:08:18.616Z,100.00
2018-12-06T09:10:51.506Z,100.00
2018-12-06T09:13:18.968Z,100.00
2018-12-06T09:15:48.093Z,100.00
2018-12-06T09:18:17.836Z,100.00
2018-12-06T09:20:47.494Z,100.00
2018-12-06T09:23:16.729Z,100.00
2018-12-06T09:25:46.384Z,100.00
2018-12-06T09:28:15.631Z,100.00
2018-12-06T09:30:44.780Z,100.00
2018-12-06T09:33:13.957Z,100.00
2018-12-06T09:35:43.247Z,100.00
2018-12-06T09:38:13.221Z,100.00
2018-12-06T09:40:42.344Z,100.00
2018-12-06T09:43:11.584Z,100.00
2018-12-06T09:45:40.892Z,100.00
2018-12-06T09:48:10.073Z,100.00
2018-12-06T09:50:39.460Z,100.00
2018-12-06T09:53:08.669Z,100.00
2018-12-06T09:55:37.833Z,100.00
2018-12-06T09:58:07.129Z,100.00
2018-12-06T10:00:37.472Z,100.00
2018-12-06T10:03:06.703Z,100.00
2018-12-06T10:05:35.895Z,100.00
2018-12-06T10:08:05.608Z,100.00
2018-12-06T10:10:35.535Z,100.00
2018-12-06T10:13:04.764Z,100.00
2018-12-06T10:15:34.129Z,100.00
2018-12-06T10:18:03.679Z,100.00
2018-12-06T10:20:32.920Z,98.56
2018-12-06T10:23:02.136Z,98.14
2018-12-06T10:25:31.377Z,97.18
2018-12-06T10:28:00.531Z,96.18
2018-12-06T10:30:29.884Z,95.96
2018-12-06T10:32:59.061Z,94.43
2018-12-06T10:35:28.975Z,93.69
2018-12-06T10:37:58.092Z,93.19
2018-12-06T10:40:27.872Z,92.66
2018-12-06T10:42:57.500Z,88.38
2018-12-06T10:45:26.844Z,86.21
2018-12-06T10:47:56.292Z,85.30
2018-12-06T10:50:25.879Z,84.88
2018-12-06T10:52:55.057Z,84.95
2018-12-06T10:55:24.703Z,85.55
2018-12-06T10:57:53.857Z,86.84
2018-12-06T11:00:29.171Z,89.01
2018-12-06T11:03:03.516Z,89.06
2018-12-06T11:22:12.290Z,87.56
2018-12-06T11:24:41.890Z,87.77
2018-12-06T11:27:11.250Z,86.50
2018-12-06T11:29:42.871Z,87.79
2018-12-06T11:32:12.790Z,88.89
2018-12-06T11:34:42.628Z,91.68
2018-12-06T11:37:12.516Z,90.21
2018-12-06T11:39:41.644Z,92.56
2018-12-06T11:42:10.836Z,93.48
2018-12-06T11:44:39.961Z,94.03
2018-12-06T11:47:10.476Z,90.82
2018-12-06T11:49:39.656Z,89.03
2018-12-06T11:52:08.796Z,89.38
2018-12-06T11:54:38.126Z,88.82
2018-12-06T11:57:07.759Z,89.32
2018-12-06T11:59:36.922Z,89.24
2018-12-06T12:02:09.971Z,90.03
2018-12-06T12:04:37.464Z,92.44
2018-12-06T12:07:06.684Z,90.86
2018-12-06T12:09:42.729Z,90.61
2018-12-06T12:12:11.876Z,92.21
2018-12-06T12:14:41.037Z,93.75
2018-12-06T12:17:10.305Z,91.49
2018-12-06T12:19:39.573Z,91.26
2018-12-06T12:22:09.148Z,90.35
2018-12-06T12:24:38.237Z,92.07
2018-12-06T12:27:07.525Z,91.26
2018-12-06T12:29:36.672Z,91.30
2018-12-06T12:32:06.969Z,90.67
2018-12-06T12:34:36.425Z,91.08
2018-12-06T12:37:05.710Z,90.98
2018-12-06T12:39:35.477Z,91.36
2018-12-06T12:42:05.391Z,92.98
2018-12-06T12:44:34.669Z,90.55
2018-12-06T12:47:03.935Z,89.78
2018-12-06T12:49:33.529Z,90.08
2018-12-06T12:52:02.734Z,94.70
2018-12-06T12:54:32.094Z,92.26
2018-12-06T12:57:01.313Z,92.17
2018-12-06T12:59:30.495Z,92.79
2018-12-06T13:01:59.817Z,93.18
2018-12-06T13:04:28.977Z,92.54
2018-12-06T13:07:12.197Z,89.32
2018-12-06T13:09:41.800Z,90.19
2018-12-06T13:12:11.073Z,90.36
2018-12-06T13:14:40.377Z,90.93
2018-12-06T13:17:09.666Z,91.42
2018-12-06T13:19:38.781Z,90.71
2018-12-06T13:22:08.093Z,90.27
2018-12-06T13:24:37.392Z,88.20
2018-12-06T13:27:06.522Z,89.55
2018-12-06T13:29:35.648Z,89.39
2018-12-06T13:32:04.917Z,89.28
2018-12-06T13:34:34.407Z,86.80
2018-12-06T13:37:03.604Z,86.88
2018-12-06T13:39:32.796Z,86.95
2018-12-06T13:42:02.549Z,87.24
2018-12-06T13:44:31.754Z,87.70
2018-12-06T13:47:00.905Z,86.53
2018-12-06T13:49:30.496Z,85.78
2018-12-06T13:51:59.733Z,87.39
2018-12-06T13:54:28.973Z,88.93
2018-12-06T13:56:58.235Z,88.86
2018-12-06T13:59:27.346Z,88.87
2018-12-06T14:01:56.589Z,90.27
2018-12-06T14:04:25.772Z,87.48
2018-12-06T14:06:54.936Z,87.10
2018-12-06T14:09:24.057Z,87.03
2018-12-06T14:11:53.184Z,88.43
2018-12-06T14:14:22.308Z,88.68
2018-12-06T14:16:51.485Z,90.63
2018-12-06T14:19:20.749Z,92.02
2018-12-06T14:21:49.856Z,92.24
2018-12-06T14:24:19.080Z,92.92
2018-12-06T14:26:48.744Z,92.53
2018-12-06T14:29:17.861Z,93.75
2018-12-06T14:31:46.976Z,94.73
2018-12-06T14:34:16.701Z,95.60
2018-12-06T14:36:45.828Z,96.32
2018-12-06T14:39:14.956Z,96.47
2018-12-06T14:41:44.156Z,96.59
2018-12-06T14:44:18.202Z,96.34
2018-12-06T14:46:47.664Z,95.91
2018-12-06T14:49:16.767Z,95.06
2018-12-06T14:51:46.597Z,94.07
2018-12-06T14:54:16.143Z,93.42
2018-12-06T14:56:45.256Z,94.50
2018-12-06T14:59:14.400Z,93.13
2018-12-06T15:01:43.677Z,93.62
2018-12-06T15:04:12.868Z,93.89
2018-12-06T15:06:42.429Z,94.35
2018-12-06T15:09:11.639Z,94.72
2018-12-06T15:11:40.805Z,96.09
2018-12-06T15:14:10.577Z,96.70
2018-12-06T15:16:39.824Z,98.07
2018-12-06T15:19:08.953Z,97.88
2018-12-06T15:21:38.495Z,98.53
2018-12-06T15:24:07.764Z,99.65
2018-12-06T15:26:36.928Z,99.62
2018-12-06T15:29:06.892Z,100.00
2018-12-06T15:31:36.169Z,100.00
2018-12-06T15:34:05.780Z,100.00
2018-12-06T15:36:35.099Z,100.00
2018-12-06T15:39:07.718Z,100.00
2018-12-06T15:41:37.146Z,100.00
2018-12-06T15:44:07.173Z,100.00
2018-12-06T15:46:36.412Z,100.00
2018-12-06T15:49:05.833Z,100.00
2018-12-06T15:51:35.173Z,100.00
2018-12-06T15:54:04.442Z,100.00
2018-12-06T15:56:33.733Z,100.00
2018-12-06T15:59:03.433Z,100.00
2018-12-06T16:01:32.791Z,100.00
2018-12-06T16:04:02.044Z,100.00
2018-12-06T16:06:31.352Z,100.00
2018-12-06T16:09:00.632Z,100.00
2018-12-06T16:11:30.358Z,100.00
2018-12-06T16:13:59.579Z,100.00
2018-12-06T16:16:28.861Z,100.00
2018-12-06T16:18:58.276Z,100.00
2018-12-06T16:21:27.485Z,100.00
2018-12-06T16:23:56.659Z,100.00
2018-12-06T16:26:25.926Z,100.00
2018-12-06T16:28:55.335Z,100.00
2018-12-06T16:31:24.624Z,100.00
2018-12-06T16:33:54.713Z,100.00
2018-12-06T16:36:23.989Z,100.00
2018-12-06T16:38:54.174Z,100.00
2018-12-06T16:41:23.632Z,100.00
2018-12-06T16:43:52.805Z,100.00
2018-12-06T16:46:22.092Z,100.00
2018-12-06T16:48:51.506Z,100.00
2018-12-06T16:51:21.428Z,100.00
2018-12-06T16:53:50.558Z,100.00
2018-12-06T16:56:19.857Z,100.00
2018-12-06T16:58:49.057Z,100.00
2018-12-06T17:01:20.665Z,100.00
2018-12-06T17:03:51.220Z,100.00
2018-12-06T17:06:20.733Z,100.00
2018-12-06T17:08:49.923Z,100.00
2018-12-06T17:11:19.052Z,100.00
2018-12-06T17:13:48.180Z,100.00
2018-12-06T17:16:17.313Z,100.00
2018-12-06T17:18:46.636Z,100.00
2018-12-06T17:21:15.767Z,100.00
2018-12-06T17:23:46.033Z,100.00
2018-12-06T17:26:15.265Z,100.00
2018-12-06T17:28:44.429Z,100.00
2018-12-06T17:31:14.085Z,100.00
2018-12-06T17:33:43.322Z,100.00
2018-12-06T17:36:12.461Z,100.00
2018-12-06T17:38:42.209Z,100.00
2018-12-06T17:41:12.452Z,100.00
2018-12-06T17:46:43.436Z,100.00
2018-12-06T17:49:13.042Z,100.00
2018-12-06T17:51:42.261Z,100.00
2018-12-06T17:54:11.970Z,100.00
2018-12-06T17:56:41.132Z,100.00
2018-12-06T17:59:10.280Z,100.00
2018-12-06T18:01:40.317Z,100.00
2018-12-06T18:04:09.513Z,100.00
2018-12-06T18:06:38.748Z,100.00
2018-12-06T18:09:09.111Z,100.00
2018-12-06T18:11:38.863Z,100.00
2018-12-06T18:14:08.165Z,100.00
2018-12-06T18:16:37.527Z,100.00
2018-12-06T18:19:06.796Z,100.00
2018-12-06T18:21:36.428Z,100.00
2018-12-06T18:24:06.121Z,100.00
2018-12-06T18:26:35.831Z,100.00
2018-12-06T18:29:05.201Z,100.00
2018-12-06T18:31:34.419Z,100.00
2018-12-06T18:34:04.068Z,100.00
2018-12-06T18:36:33.383Z,100.00
2018-12-06T18:39:04.661Z,100.00
2018-12-06T18:41:33.867Z,100.00
2018-12-06T18:44:03.218Z,100.00
2018-12-06T18:46:32.452Z,100.00
2018-12-06T18:49:01.956Z,100.00
2018-12-06T18:51:31.444Z,100.00
2018-12-06T18:54:01.028Z,100.00
2018-12-06T18:56:30.404Z,100.00
2018-12-06T18:59:00.004Z,100.00
2018-12-06T19:01:29.228Z,100.00
2018-12-06T19:03:58.917Z,100.00
2018-12-06T19:06:28.117Z,100.00
2018-12-06T19:08:57.263Z,100.00
2018-12-06T19:11:26.426Z,100.00
2018-12-06T19:13:55.569Z,100.00
2018-12-06T19:16:24.880Z,100.00
2018-12-06T19:18:54.164Z,100.00
2018-12-06T19:21:23.508Z,100.00
2018-12-06T19:23:53.496Z,100.00
2018-12-06T19:26:22.863Z,100.00
2018-12-06T19:28:52.427Z,100.00
2018-12-06T19:31:21.632Z,100.00
2018-12-06T19:33:50.908Z,100.00
2018-12-06T19:36:20.197Z,100.00
2018-12-06T19:38:49.445Z,100.00
2018-12-06T19:41:18.605Z,100.00
2018-12-06T19:43:47.843Z,100.00
2018-12-06T19:46:18.732Z,100.00
2018-12-06T19:48:48.134Z,100.00
2018-12-06T19:51:17.436Z,100.00
2018-12-06T19:53:46.667Z,100.00
2018-12-06T19:56:15.960Z,100.00
2018-12-06T19:58:47.503Z,100.00
2018-12-06T20:01:17.002Z,100.00
2018-12-06T20:03:46.634Z,100.00
2018-12-06T20:06:17.309Z,100.00
2018-12-06T20:08:47.060Z,100.00
2018-12-06T20:11:16.281Z,100.00
2018-12-06T20:13:45.433Z,100.00
2018-12-06T20:16:14.761Z,100.00
2018-12-06T20:18:43.893Z,100.00
2018-12-06T20:21:13.504Z,100.00
2018-12-06T20:23:42.812Z,100.00
2018-12-06T20:26:12.577Z,100.00
2018-12-06T20:28:41.868Z,100.00
2018-12-06T20:31:11.189Z,100.00
2018-12-06T20:33:40.608Z,100.00
2018-12-06T20:36:10.167Z,100.00
2018-12-06T20:38:39.736Z,100.00
2018-12-06T20:41:09.699Z,100.00
2018-12-06T20:43:39.301Z,100.00
2018-12-06T20:46:08.742Z,100.00
2018-12-06T20:48:38.488Z,100.00
2018-12-06T20:51:07.714Z,100.00
2018-12-06T20:53:37.448Z,100.00
2018-12-06T20:56:07.241Z,100.00
2018-12-06T20:58:37.133Z,100.00
2018-12-06T21:01:06.528Z,100.00
2018-12-06T21:03:36.100Z,100.00
2018-12-06T21:06:05.496Z,100.00
2018-12-06T21:08:34.825Z,100.00
2018-12-06T21:11:04.186Z,100.00
2018-12-06T21:13:33.693Z,100.00
2018-12-06T21:16:03.580Z,100.00
2018-12-06T21:18:33.356Z,100.00
2018-12-06T21:21:03.105Z,99.37
2018-12-06T21:23:32.399Z,100.00
2018-12-06T21:26:01.616Z,99.79
2018-12-06T21:28:30.756Z,100.00
2018-12-06T21:30:59.977Z,99.92
2018-12-06T21:33:29.683Z,99.79
2018-12-06T21:35:59.650Z,100.00
2018-12-06T21:38:29.214Z,100.00
2018-12-06T21:40:58.568Z,100.00
2018-12-06T21:43:28.000Z,100.00
2018-12-06T21:45:57.635Z,100.00
2018-12-06T21:48:26.746Z,100.00
2018-12-06T21:50:55.880Z,100.00
2018-12-06T21:53:25.213Z,100.00
2018-12-06T21:55:54.360Z,100.00
2018-12-06T21:58:23.759Z,100.00
2018-12-06T22:00:53.071Z,100.00
2018-12-06T22:03:22.741Z,100.00
2018-12-06T22:05:51.940Z,100.00
2018-12-06T22:08:21.097Z,100.00
2018-12-06T22:10:50.720Z,100.00
2018-12-06T22:13:19.989Z,100.00
2018-12-06T22:15:49.120Z,100.00
2018-12-06T22:18:18.262Z,100.00
2018-12-06T22:20:47.479Z,100.00
2018-12-06T22:23:17.143Z,100.00
2018-12-06T22:25:46.381Z,100.00
2018-12-06T22:28:15.848Z,99.70
2018-12-06T22:30:45.092Z,100.00
2018-12-06T22:33:14.381Z,99.94
2018-12-06T22:35:43.875Z,100.00
2018-12-06T22:38:13.053Z,100.00
2018-12-06T22:40:42.377Z,100.00
2018-12-06T22:43:11.757Z,100.00
2018-12-06T22:46:11.761Z,100.00
2018-12-06T22:48:40.927Z,100.00
2018-12-06T22:51:10.217Z,100.00
2018-12-06T22:53:39.559Z,100.00
2018-12-06T22:56:09.172Z,100.00
2018-12-06T22:58:38.564Z,100.00
2018-12-06T23:01:11.173Z,100.00
2018-12-06T23:03:40.509Z,100.00
2018-12-06T23:06:11.003Z,99.91
2018-12-06T23:08:40.368Z,100.00
2018-12-06T23:11:10.132Z,100.00
2018-12-06T23:13:40.053Z,100.00
2018-12-06T23:16:09.377Z,100.00
2018-12-06T23:18:38.716Z,100.00
2018-12-06T23:21:07.999Z,100.00
2018-12-06T23:23:37.273Z,100.00
2018-12-06T23:26:06.496Z,100.00
2018-12-06T23:28:35.642Z,100.00
2018-12-06T23:31:04.928Z,100.00
2018-12-06T23:33:34.239Z,100.00
2018-12-06T23:36:03.363Z,100.00
2018-12-06T23:38:32.590Z,100.00
2018-12-06T23:41:01.718Z,100.00
2018-12-06T23:43:30.990Z,100.00
2018-12-06T23:46:00.117Z,100.00
2018-12-06T23:48:30.486Z,99.71
2018-12-06T23:51:16.692Z,99.75
2018-12-06T23:53:46.116Z,99.93
2018-12-06T23:56:15.572Z,99.42
2018-12-06T23:58:45.137Z,99.52
